Time;durP1;ratioP1;P1;durP2;ratioP2;P2;SDS_P1;SDS_P2;PMS_P1;PMS_P2;Temp;Humidity;BMP_temperature;BMP_pressure;BME280_temperature;BME280_humidity;BME280_pressure;Samples;Min_cycle;Max_cycle;Signal;HPM_P1;HPM_P2
2022/12/11 00:01:11;;;;;;;19.20;8.53;;;;;;;8.94;83.46;100171.88;1772164;81;21021;-66
2022/12/11 00:03:38;;;;;;;24.03;9.37;;;;;;;8.94;83.17;100178.63;1803708;79;20975;-67
2022/12/11 00:06:09;;;;;;;24.50;9.07;;;;;;;8.93;83.12;100186.39;1820868;79;21010;-66
2022/12/11 00:08:56;;;;;;;24.60;10.70;;;;;;;8.93;83.14;100187.23;1790467;80;21057;-67
2022/12/11 00:11:26;;;;;;;22.83;9.50;;;;;;;8.94;83.33;100190.77;1778406;81;21470;-67
2022/12/11 00:13:53;;;;;;;25.07;9.87;;;;;;;8.95;83.68;100195.67;1778126;81;21052;-67
2022/12/11 00:16:20;;;;;;;24.37;9.10;;;;;;;8.95;83.96;100204.61;1793357;79;21026;-67
2022/12/11 00:18:48;;;;;;;21.87;8.93;;;;;;;8.96;84.21;100208.14;1820065;79;20995;-66
2022/12/11 00:21:18;;;;;;;24.77;9.23;;;;;;;8.96;84.35;100217.09;1820113;79;21480;-67
2022/12/11 00:23:45;;;;;;;21.87;8.83;;;;;;;8.96;84.56;100217.09;1820100;79;21041;-67
2022/12/11 00:26:14;;;;;;;21.23;9.30;;;;;;;8.93;84.81;100212.84;1820199;79;21073;-67
2022/12/11 00:28:41;;;;;;;20.37;9.43;;;;;;;8.91;85.04;100218.06;1820285;79;21010;-67
2022/12/11 00:31:12;;;;;;;17.47;7.83;;;;;;;8.88;85.26;100219.20;1826433;78;21065;-67
2022/12/11 00:34:12;;;;;;;20.20;9.18;;;;;;;8.85;85.48;100216.84;1832292;78;21021;-67
2022/12/11 00:41:09;;;;;;;19.73;9.20;;;;;;;8.81;86.18;100222.19;1831909;78;21021;-67
2022/12/11 00:43:37;;;;;;;18.57;8.87;;;;;;;8.77;86.96;100218.62;1832024;78;21025;-66
2022/12/11 00:46:04;;;;;;;18.97;8.87;;;;;;;8.75;87.13;100220.13;1831962;78;21006;-67
2022/12/11 00:48:31;;;;;;;21.73;9.23;;;;;;;8.72;87.27;100220.42;1831982;78;21410;-66
2022/12/11 00:50:58;;;;;;;17.37;8.10;;;;;;;8.70;87.40;100224.62;1831848;78;21057;-66
2022/12/11 00:53:36;;;;;;;20.20;8.70;;;;;;;8.70;87.55;100218.39;1832275;78;21027;-66
2022/12/11 00:56:13;;;;;;;17.27;8.23;;;;;;;8.69;87.89;100218.02;1832069;78;21065;-67
2022/12/11 00:59:09;;;;;;;20.53;8.77;;;;;;;8.69;88.12;100220.72;1828268;78;20958;-67
2022/12/11 01:01:55;;;;;;;16.90;7.20;;;;;;;8.68;88.23;100220.39;1831861;78;21042;-66
2022/12/11 01:04:23;;;;;;;16.87;8.20;;;;;;;8.67;88.53;100221.38;1832099;78;21041;-67
2022/12/11 01:06:51;;;;;;;16.50;8.07;;;;;;;8.62;88.69;100212.91;1832118;78;21013;-67
2022/12/11 01:13:27;;;;;;;17.23;8.60;;;;;;;8.63;89.08;100219.50;1831807;78;21017;-66
2022/12/11 01:15:55;;;;;;;17.17;8.10;;;;;;;8.60;89.53;100202.78;1832200;78;21060;-66
2022/12/11 01:18:24;;;;;;;18.30;8.73;;;;;;;8.60;90.20;100222.49;1831727;78;21081;-66
2022/12/11 01:20:53;;;;;;;15.33;7.80;;;;;;;8.59;90.57;100204.64;1832041;78;21026;-67
2022/12/11 01:23:22;;;;;;;17.13;8.17;;;;;;;8.59;90.25;100213.20;1832093;78;21034;-67
2022/12/11 01:26:13;;;;;;;16.17;8.23;;;;;;;8.58;90.30;100211.02;1832142;78;21495;-67
2022/12/11 01:29:07;;;;;;;17.17;8.37;;;;;;;8.57;90.31;100214.73;1831576;78;21129;-67
2022/12/11 01:32:24;;;;;;;16.30;8.40;;;;;;;8.56;90.53;100207.64;1831596;78;21072;-66
2022/12/11 01:34:53;;;;;;;17.50;8.57;;;;;;;8.53;90.52;100222.77;1832056;78;21507;-66
2022/12/11 01:37:20;;;;;;;18.07;8.80;;;;;;;8.51;90.72;100218.03;1832045;78;21492;-66
2022/12/11 01:39:48;;;;;;;19.50;9.33;;;;;;;8.49;90.62;100224.91;1831775;78;21030;-66
2022/12/11 01:42:20;;;;;;;16.67;7.70;;;;;;;8.49;90.75;100218.69;1831831;78;21030;-67
2022/12/11 01:44:54;;;;;;;16.80;8.30;;;;;;;8.48;90.85;100223.72;1832028;78;21038;-66
2022/12/11 01:51:20;;;;;;;14.63;7.70;;;;;;;8.47;91.29;100232.31;1832110;78;21069;-66
2022/12/11 01:53:58;;;;;;;13.10;6.83;;;;;;;8.47;91.64;100233.66;1831983;78;21064;-66
2022/12/11 01:56:31;;;;;;;14.30;7.87;;;;;;;8.48;92.78;100235.84;1831711;78;21029;-66
2022/12/11 01:59:06;;;;;;;18.53;8.47;;;;;;;8.48;92.58;100231.80;1831657;78;21475;-66
2022/12/11 02:01:42;;;;;;;16.37;7.43;;;;;;;8.49;92.32;100235.70;1832150;78;21542;-67
2022/12/11 06:08:27;;;;;;;26.70;12.13;;;;;;;8.82;76.84;100254.90;1837714;77;22935;-68
2022/12/11 06:11:46;;;;;;;29.30;12.93;;;;;;;8.77;71.39;99904.02;1795803;80;21014;-68
2022/12/11 06:14:14;;;;;;;28.13;12.10;;;;;;;8.80;72.47;99914.97;1796148;80;21085;-65
2022/12/11 06:16:41;;;;;;;27.87;13.00;;;;;;;8.83;73.17;99938.92;1795945;79;21469;-66
2022/12/11 06:19:12;;;;;;;32.70;14.03;;;;;;;8.85;73.51;99985.44;1795929;80;21062;-68
2022/12/11 06:21:39;;;;;;;33.27;13.87;;;;;;;8.83;73.81;100007.67;1795966;79;21539;-67
2022/12/11 06:24:10;;;;;;;29.97;12.93;;;;;;;8.84;74.28;100026.91;1795802;80;21073;-67
2022/12/11 06:26:41;;;;;;;29.37;12.97;;;;;;;8.86;74.51;100039.72;1796125;80;21053;-66
2022/12/11 06:29:10;;;;;;;24.07;12.97;;;;;;;8.86;74.78;100047.80;1796075;80;21014;-68
2022/12/11 06:31:38;;;;;;;28.70;13.73;;;;;;;8.89;75.11;100059.62;1796077;80;20962;-67
2022/12/11 06:34:12;;;;;;;26.07;13.00;;;;;;;8.91;75.28;100071.09;1795730;80;21030;-67
2022/12/11 06:36:38;;;;;;;;;;;;;;;8.91;75.53;100080.53;1779065;80;20990;-66
2022/12/11 06:39:12;;;;;;;25.60;12.50;;;;;;;8.91;75.74;100099.41;1795641;80;20114;-65
2022/12/11 06:41:42;;;;;;;26.23;12.60;;;;;;;8.93;75.90;100115.77;1796107;80;21442;-65
2022/12/11 06:44:10;;;;;;;21.47;10.93;;;;;;;8.95;76.05;100123.70;1795711;80;21033;-65
2022/12/11 06:46:37;;;;;;;27.03;13.13;;;;;;;8.95;76.20;100129.61;1795947;80;20991;-66
2022/12/11 06:49:04;;;;;;;28.17;13.73;;;;;;;8.97;76.42;100144.61;1795695;79;21038;-66
2022/12/11 06:51:31;;;;;;;29.43;13.67;;;;;;;8.98;76.63;100150.84;1796068;80;21034;-66
2022/12/11 06:53:58;;;;;;;26.07;12.10;;;;;;;8.99;76.69;100152.03;1795859;80;20994;-66
2022/12/11 06:56:25;;;;;;;25.10;11.80;;;;;;;8.99;76.82;100155.24;1796102;80;21027;-67
2022/12/11 06:58:51;;;;;;;24.17;11.13;;;;;;;9.00;76.92;100165.04;1795897;78;21519;-66
2022/12/11 07:01:24;;;;;;;26.00;11.63;;;;;;;9.01;77.03;100162.19;1795990;80;21031;-67
2022/12/11 07:03:58;;;;;;;24.00;10.68;;;;;;;9.02;77.43;100169.25;1796178;80;21031;-67
2022/12/11 07:06:48;;;;;;;26.33;11.20;;;;;;;9.02;78.12;100170.61;1795132;79;21038;-67
2022/12/11 07:09:17;;;;;;;27.57;11.80;;;;;;;9.03;78.44;100168.27;1777105;80;21073;-66
2022/12/11 07:11:44;;;;;;;22.17;10.27;;;;;;;9.04;78.53;100184.78;1776676;80;21029;-66
2022/12/11 07:14:13;;;;;;;25.00;10.97;;;;;;;9.06;78.32;100188.16;1776594;80;21062;-66
2022/12/11 07:16:40;;;;;;;24.90;11.60;;;;;;;9.04;78.40;100190.17;1776640;81;21034;-67
2022/12/11 07:19:06;;;;;;;22.90;11.00;;;;;;;9.06;78.46;100190.02;1776424;80;21057;-66
2022/12/11 07:21:34;;;;;;;22.53;10.37;;;;;;;9.06;78.48;100194.06;1776031;80;21029;-67
2022/12/11 07:24:01;;;;;;;20.77;10.37;;;;;;;9.07;78.81;100193.91;1776122;81;21006;-67
2022/12/11 07:26:28;;;;;;;22.40;10.10;;;;;;;9.07;79.11;100199.81;1776082;81;21066;-68
2022/12/11 07:28:58;;;;;;;20.57;9.60;;;;;;;9.07;79.43;100206.05;1776387;80;21078;-67
2022/12/11 07:31:26;;;;;;;20.70;9.50;;;;;;;9.08;79.46;100202.36;1776205;80;21511;-65
2022/12/11 07:33:58;;;;;;;23.30;11.53;;;;;;;9.08;79.33;100202.36;1776201;80;20982;-68
2022/12/11 07:36:27;;;;;;;18.63;9.83;;;;;;;9.09;79.20;100204.55;1776386;81;20990;-68
2022/12/11 07:38:55;;;;;;;21.77;10.50;;;;;;;9.09;79.16;100208.08;1776162;81;21026;-67
2022/12/11 07:41:22;;;;;;;19.37;9.73;;;;;;;9.10;79.20;100204.88;1776265;80;21016;-67
2022/12/11 07:43:51;;;;;;;20.07;9.37;;;;;;;9.10;79.20;100203.52;1775745;81;21081;-67
2022/12/11 07:46:21;;;;;;;19.57;9.77;;;;;;;9.13;79.17;100213.50;1776226;80;21480;-68
2022/12/11 07:48:48;;;;;;;22.30;10.13;;;;;;;9.12;79.17;100206.42;1776421;80;21446;-67
2022/12/11 07:51:19;;;;;;;20.97;9.50;;;;;;;9.11;79.26;100207.42;1776125;80;20987;-68
2022/12/11 07:53:48;;;;;;;22.23;10.03;;;;;;;9.12;79.36;100202.38;1776595;80;21026;-67
2022/12/11 07:56:16;;;;;;;21.80;9.40;;;;;;;9.13;79.49;100190.56;1776865;80;21495;-67
2022/12/11 07:58:42;;;;;;;23.17;9.33;;;;;;;9.13;79.61;100197.31;1776201;80;21006;-67
2022/12/11 08:01:21;;;;;;;16.70;8.27;;;;;;;9.15;79.75;100185.53;1776186;80;21085;-67
2022/12/11 08:03:48;;;;;;;21.10;9.23;;;;;;;9.15;79.92;100187.72;1776330;80;21018;-67
2022/12/11 08:06:15;;;;;;;16.90;8.00;;;;;;;9.15;80.36;100186.37;1776228;80;21026;-67
2022/12/11 08:08:41;;;;;;;21.93;9.40;;;;;;;9.17;80.74;100180.34;1778031;79;21031;-67
2022/12/11 08:11:11;;;;;;;18.30;8.47;;;;;;;9.18;80.89;100173.08;1779673;80;21050;-66
2022/12/11 08:13:38;;;;;;;17.93;8.00;;;;;;;9.18;81.03;100171.22;1779997;80;21555;-67
2022/12/11 08:16:08;;;;;;;20.23;8.83;;;;;;;9.18;81.15;100161.78;1780325;80;21038;-67
2022/12/11 08:18:36;;;;;;;21.93;9.77;;;;;;;9.20;81.23;100156.23;1779465;80;21027;-67
2022/12/11 08:21:25;;;;;;;19.40;8.63;;;;;;;9.21;81.37;100153.88;1778891;81;21035;-67
2022/12/11 08:23:54;;;;;;;17.07;8.23;;;;;;;9.20;81.53;100161.11;1778748;81;20996;-67
2022/12/11 08:26:24;;;;;;;16.30;8.33;;;;;;;9.23;81.74;100145.13;1779122;80;21488;-67
2022/12/11 08:28:51;;;;;;;20.23;8.73;;;;;;;9.25;81.87;100141.76;1779867;80;21061;-67
2022/12/11 08:31:18;;;;;;;18.37;8.60;;;;;;;9.28;82.06;100142.80;1780648;80;21012;-67
2022/12/11 08:33:51;;;;;;;15.40;7.87;;;;;;;9.33;82.13;100127.45;1780352;79;21441;-67
2022/12/11 08:36:20;;;;;;;19.52;9.45;;;;;;;9.37;82.19;100125.63;1779355;80;20998;-67
2022/12/11 08:38:47;;;;;;;16.42;7.70;;;;;;;9.44;82.19;100117.74;1779777;79;21497;-68
2022/12/11 08:41:17;;;;;;;21.57;9.37;;;;;;;9.50;82.19;100119.78;1779063;79;21070;-67
2022/12/11 08:43:44;;;;;;;16.23;8.03;;;;;;;9.56;82.24;100126.38;1779072;79;21027;-67
2022/12/11 08:46:12;;;;;;;23.97;9.33;;;;;;;9.60;82.35;100123.20;1780084;80;20996;-65
2022/12/11 08:48:41;;;;;;;17.03;8.17;;;;;;;9.64;82.49;100116.97;1779024;80;20987;-68
2022/12/11 08:51:11;;;;;;;18.10;8.00;;;;;;;9.67;82.59;100113.44;1779021;80;21055;-67
2022/12/11 08:53:38;;;;;;;17.67;8.70;;;;;;;9.69;82.63;100121.38;1779915;80;21047;-65
2022/12/11 08:56:22;;;;;;;19.70;8.97;;;;;;;9.73;82.70;100129.48;1779962;80;21003;-67
2022/12/11 08:58:49;;;;;;;17.20;8.67;;;;;;;9.74;82.91;100132.54;1779085;80;21318;-67
2022/12/11 09:01:28;;;;;;;18.17;8.07;;;;;;;9.76;83.26;100130.52;1779889;79;21019;-67
2022/12/11 09:03:58;;;;;;;19.60;8.40;;;;;;;9.75;83.45;100128.81;1778850;80;21469;-64
2022/12/11 09:06:28;;;;;;;19.53;8.83;;;;;;;9.74;83.72;100124.92;1779029;81;21015;-64
2022/12/11 09:09:32;;;;;;;18.03;8.20;;;;;;;9.71;84.05;100115.82;1780176;80;21516;-67
2022/12/11 09:12:00;;;;;;;17.20;8.40;;;;;;;9.65;84.55;100114.11;1778810;80;21584;-67
2022/12/11 09:14:39;;;;;;;21.97;8.83;;;;;;;9.62;85.18;100109.03;1779469;80;21031;-64
2022/12/11 09:17:06;;;;;;;19.03;8.97;;;;;;;9.58;85.61;100107.67;1779775;80;21028;-65
2022/12/11 09:19:33;;;;;;;16.07;7.40;;;;;;;9.57;86.20;100093.83;1778882;80;21039;-65
2022/12/11 09:22:00;;;;;;;17.93;8.23;;;;;;;9.59;86.47;100100.41;1779850;80;21039;-65
2022/12/11 09:24:27;;;;;;;22.20;8.63;;;;;;;9.59;86.83;100089.62;1779408;80;21077;-65
2022/12/11 09:26:54;;;;;;;17.53;7.67;;;;;;;9.60;87.27;100089.45;1781175;79;20992;-65
2022/12/11 09:29:20;;;;;;;17.67;8.63;;;;;;;9.62;87.58;100090.13;1779837;80;21179;-65
2022/12/11 09:31:48;;;;;;;15.28;7.15;;;;;;;9.64;87.97;100094.02;1779730;80;21019;-64
2022/12/11 09:34:16;;;;;;;16.37;8.10;;;;;;;9.62;88.57;100090.64;1779186;80;21074;-64
2022/12/11 09:36:44;;;;;;;18.17;8.80;;;;;;;9.60;89.23;100079.17;1779706;80;21022;-65
2022/12/11 09:39:12;;;;;;;20.30;8.53;;;;;;;9.59;89.76;100070.20;1779937;80;21532;-65
2022/12/11 09:41:55;;;;;;;16.32;7.83;;;;;;;9.59;90.39;100066.67;1779082;81;20976;-65
2022/12/11 09:44:42;;;;;;;;;;;;;;;9.55;91.23;100056.70;1782014;80;21524;-65
2022/12/11 09:47:37;;;;;;;20.57;9.07;;;;;;;9.53;93.15;100041.70;1780096;80;20130;-67
2022/12/11 09:50:24;;;;;;;18.83;8.57;;;;;;;9.50;96.82;100054.48;1778719;80;21015;-65
2022/12/11 09:53:16;;;;;;;20.13;8.33;;;;;;;9.48;98.25;100051.63;1778685;80;20992;-65
2022/12/11 09:55:56;;;;;;;18.52;8.50;;;;;;;9.49;99.28;100042.02;1779619;80;21066;-65
2022/12/11 09:58:49;;;;;;;19.40;8.03;;;;;;;9.53;99.96;100039.00;1779321;81;20991;-65
2022/12/11 10:01:37;;;;;;;19.07;7.93;;;;;;;9.55;100.00;100023.48;1780063;80;21070;-65
2022/12/11 10:04:33;;;;;;;18.30;8.40;;;;;;;9.58;100.00;100021.77;1744311;82;21089;-65
2022/12/11 10:07:11;;;;;;;16.47;7.50;;;;;;;9.62;100.00;100003.74;1743972;82;21531;-66
2022/12/11 10:10:18;;;;;;;22.43;8.33;;;;;;;9.66;100.00;99990.23;1746426;82;21034;-65
2022/12/11 10:12:59;;;;;;;18.83;7.60;;;;;;;9.75;100.00;99990.27;1784085;80;21058;-65
2022/12/11 10:15:36;;;;;;;16.35;8.00;;;;;;;9.80;100.00;99976.59;1781130;80;21007;-65
2022/12/11 10:18:06;;;;;;;16.07;7.27;;;;;;;9.86;100.00;99973.72;1780308;80;21043;-66
2022/12/11 10:20:38;;;;;;;14.87;7.60;;;;;;;9.89;100.00;99966.12;1766139;80;21460;-67
2022/12/11 10:23:09;;;;;;;16.70;7.53;;;;;;;9.91;100.00;99948.92;1781013;80;21516;-66
2022/12/11 10:25:41;;;;;;;20.57;9.13;;;;;;;9.91;100.00;99933.55;1765691;80;20956;-66
2022/12/11 10:28:14;;;;;;;16.27;6.92;;;;;;;9.89;100.00;99908.06;1780407;80;21007;-66
2022/12/11 10:31:19;;;;;;;18.55;7.70;;;;;;;9.86;100.00;99876.02;1781619;80;20987;-66
2022/12/11 10:34:02;;;;;;;18.50;8.07;;;;;;;9.86;100.00;99846.31;1772715;80;21181;-66
2022/12/11 10:36:38;;;;;;;17.50;7.57;;;;;;;9.85;100.00;99806.80;1779153;80;21011;-66
2022/12/11 10:39:20;;;;;;;17.80;7.63;;;;;;;9.83;100.00;99770.20;1778942;80;21091;-66
2022/12/11 10:41:50;;;;;;;19.33;7.03;;;;;;;9.83;100.00;99744.02;1779471;80;21015;-66
2022/12/11 10:44:29;;;;;;;21.30;8.20;;;;;;;9.84;100.00;99711.97;1781246;80;21548;-66
2022/12/11 10:47:13;;;;;;;22.07;8.43;;;;;;;9.85;100.00;99693.38;1780884;80;21018;-66
2022/12/11 10:49:45;;;;;;;17.90;7.57;;;;;;;9.87;100.00;99648.13;1781041;80;21501;-66
2022/12/11 10:52:18;;;;;;;20.65;8.05;;;;;;;9.90;100.00;99628.05;1779834;80;21058;-66
2022/12/11 10:54:47;;;;;;;22.27;9.97;;;;;;;9.92;100.00;99599.52;1713217;83;21046;-66
2022/12/11 10:57:14;;;;;;;25.80;11.80;;;;;;;9.96;100.00;99598.97;1771345;80;21469;-65
2022/12/11 10:59:48;;;;;;;29.20;13.57;;;;;;;10.00;100.00;99572.45;1757380;80;20987;-66
2022/12/11 11:02:50;;;;;;;25.67;12.90;;;;;;;10.00;100.00;99562.98;1779492;80;21016;-66
2022/12/11 11:05:28;;;;;;;31.23;11.83;;;;;;;10.03;100.00;99554.53;1749825;81;21050;-65
2022/12/11 11:08:13;;;;;;;35.17;15.23;;;;;;;10.07;100.00;99546.39;1748333;81;21066;-66
2022/12/11 11:10:58;;;;;;;30.33;13.13;;;;;;;10.08;100.00;99527.83;1749045;82;21493;-66
2022/12/11 11:13:30;;;;;;;31.80;15.00;;;;;;;10.08;100.00;99521.91;1748967;82;21501;-66
2022/12/11 11:16:05;;;;;;;28.75;13.13;;;;;;;10.10;100.00;99519.55;1749097;82;21050;-66
2022/12/11 11:18:33;;;;;;;30.10;13.50;;;;;;;10.11;100.00;99552.28;1749374;82;21015;-65
2022/12/11 11:20:59;;;;;;;28.90;13.50;;;;;;;10.12;100.00;99560.72;1748732;82;21062;-65
2022/12/11 11:23:26;;;;;;;23.27;10.90;;;;;;;10.14;100.00;99539.77;1748808;81;21090;-65
2022/12/11 11:26:06;;;;;;;27.13;12.43;;;;;;;10.17;100.00;99527.26;1748792;81;21023;-65
2022/12/11 11:28:44;;;;;;;20.53;8.87;;;;;;;10.19;100.00;99517.94;1748901;82;21038;-65
2022/12/11 11:31:13;;;;;;;19.20;9.37;;;;;;;10.21;100.00;99515.05;1748444;81;21046;-65
2022/12/11 11:33:59;;;;;;;25.93;10.20;;;;;;;10.20;100.00;99506.13;1749091;82;21026;-65
2022/12/11 11:36:29;;;;;;;19.57;7.60;;;;;;;10.23;100.00;99500.36;1748892;82;20979;-66
2022/12/11 11:39:33;;;;;;;16.25;7.28;;;;;;;10.24;100.00;99493.09;1749010;81;21003;-65
2022/12/11 11:42:28;;;;;;;19.52;8.25;;;;;;;10.24;100.00;99486.33;1748693;81;21094;-65
2022/12/11 11:45:06;;;;;;;15.32;6.87;;;;;;;10.23;100.00;99480.59;1714810;84;21130;-66
2022/12/11 11:47:41;;;;;;;20.47;7.17;;;;;;;10.18;100.00;99483.86;1692535;84;21061;-66
2022/12/11 11:50:18;;;;;;;13.00;6.77;;;;;;;10.18;100.00;99516.27;1714687;82;21054;-65
2022/12/11 11:53:11;;;;;;;20.85;7.42;;;;;;;10.17;100.00;99500.24;1714746;84;20979;-66
2022/12/11 11:56:21;;;;;;;16.35;6.05;;;;;;;10.11;100.00;99513.97;1715023;84;21034;-65
2022/12/11 11:59:15;;;;;;;15.70;6.50;;;;;;;10.11;100.00;99503.65;1714446;84;21081;-65
2022/12/11 12:01:42;;;;;;;;;;;;;;;10.10;100.00;99497.42;1717443;83;20990;-66
2022/12/11 12:04:09;;;;;;;14.00;6.40;;;;;;;10.09;100.00;99488.97;1701037;84;20090;-65
2022/12/11 12:07:09;;;;;;;15.03;6.45;;;;;;;10.09;100.00;99488.97;1740046;82;21030;-65
2022/12/11 12:09:53;;;;;;;14.50;6.67;;;;;;;10.07;100.00;99495.94;1712788;83;21074;-65
2022/12/11 12:12:55;;;;;;;16.13;6.20;;;;;;;10.08;100.00;99494.06;1712055;84;21050;-65
2022/12/11 12:15:48;;;;;;;18.00;7.10;;;;;;;10.10;100.00;99477.68;1713518;84;21126;-65
2022/12/11 12:18:36;;;;;;;20.95;8.10;;;;;;;10.10;100.00;99481.21;1712320;83;21011;-65
2022/12/11 12:21:16;;;;;;;17.90;8.30;;;;;;;10.09;100.00;99484.92;1749654;81;21073;-65
2022/12/11 12:23:54;;;;;;;18.73;8.07;;;;;;;10.08;100.00;99499.47;1749789;82;21023;-66
2022/12/11 12:26:45;;;;;;;20.13;7.83;;;;;;;10.05;100.00;99491.72;1740466;81;21027;-65
2022/12/11 12:29:51;;;;;;;15.57;6.73;;;;;;;10.03;100.00;99501.34;1750571;82;21111;-65
2022/12/11 12:32:49;;;;;;;16.13;6.67;;;;;;;10.02;100.00;99505.09;1749772;82;21022;-64
2022/12/11 12:35:36;;;;;;;16.55;6.75;;;;;;;10.00;100.00;99496.30;1749372;81;21031;-64
2022/12/11 12:38:38;;;;;;;15.87;7.43;;;;;;;9.98;100.00;99496.16;1747950;82;21031;-64
2022/12/11 12:41:14;;;;;;;18.80;7.00;;;;;;;9.98;100.00;99497.52;1712600;84;21464;-64
2022/12/11 12:43:51;;;;;;;17.30;7.40;;;;;;;9.95;100.00;99493.33;1748123;82;21043;-65
2022/12/11 12:46:53;;;;;;;17.82;7.03;;;;;;;9.95;100.00;99489.77;1748403;81;21540;-65
2022/12/11 12:49:34;;;;;;;16.47;7.10;;;;;;;9.93;100.00;99485.89;1747955;82;21510;-66
2022/12/11 12:52:01;;;;;;;16.67;7.20;;;;;;;9.92;100.00;99490.15;1712545;84;21057;-65
2022/12/11 12:54:29;;;;;;;22.77;8.50;;;;;;;9.91;100.00;99494.69;1712196;82;20991;-65
2022/12/11 12:56:56;;;;;;;17.03;7.40;;;;;;;9.90;100.00;99480.88;1737807;82;21058;-65
2022/12/11 12:59:26;;;;;;;20.43;7.60;;;;;;;9.88;100.00;99474.81;1750435;82;21050;-65
2022/12/11 13:01:57;;;;;;;11.17;5.63;;;;;;;9.87;100.00;99478.00;1750018;82;21468;-66
2022/12/11 13:04:43;;;;;;;19.70;8.33;;;;;;;9.85;100.00;99470.59;1749132;81;21445;-65
2022/12/11 13:07:14;;;;;;;17.40;7.78;;;;;;;9.83;100.00;99473.16;1750739;81;21090;-65
2022/12/11 13:09:42;;;;;;;15.68;6.58;;;;;;;9.80;100.00;99458.66;1750033;81;21070;-65
2022/12/11 13:12:14;;;;;;;18.27;7.28;;;;;;;9.76;100.00;99460.89;1750642;82;21082;-65
2022/12/11 13:14:41;;;;;;;13.55;6.70;;;;;;;9.73;100.00;99458.53;1750420;81;21074;-65
2022/12/11 13:17:36;;;;;;;16.70;6.20;;;;;;;9.70;100.00;99458.89;1740412;82;21035;-66
2022/12/11 13:20:17;;;;;;;18.57;6.70;;;;;;;9.68;100.00;99478.48;1695279;84;21081;-66
2022/12/11 13:22:58;;;;;;;14.63;6.55;;;;;;;9.67;100.00;99460.63;1715108;84;21014;-65
2022/12/11 13:25:30;;;;;;;16.40;6.80;;;;;;;9.66;100.00;99461.63;1750198;81;21023;-65
2022/12/11 13:28:07;;;;;;;20.17;9.30;;;;;;;9.64;100.00;99447.47;1751043;81;21004;-65
2022/12/11 13:30:36;;;;;;;20.10;7.30;;;;;;;9.62;100.00;99455.75;1750667;81;21035;-65
2022/12/11 13:33:16;;;;;;;14.10;6.73;;;;;;;9.60;100.00;99447.52;1751030;81;21480;-65
2022/12/11 13:35:44;;;;;;;16.10;7.20;;;;;;;9.58;100.00;99444.98;1750775;81;21038;-66
2022/12/11 13:38:18;;;;;;;19.63;8.43;;;;;;;9.59;100.00;99445.81;1670716;84;21034;-66
2022/12/11 13:40:51;;;;;;;16.47;7.07;;;;;;;9.58;100.00;99449.04;1714709;82;21073;-65
2022/12/11 13:43:25;;;;;;;22.82;7.47;;;;;;;9.58;100.00;99440.08;1750925;81;21002;-65
2022/12/11 13:45:56;;;;;;;15.23;6.33;;;;;;;9.58;100.00;99450.38;1751064;80;21034;-66
2022/12/11 13:48:48;;;;;;;16.43;6.13;;;;;;;9.56;100.00;99444.81;1750779;82;21078;-65
2022/12/11 13:51:19;;;;;;;15.80;7.00;;;;;;;9.54;100.00;99444.99;1749220;81;21575;-65
2022/12/11 13:53:46;;;;;;;16.70;6.87;;;;;;;9.53;100.00;99441.16;1750914;82;20994;-65
2022/12/11 13:56:20;;;;;;;16.93;7.10;;;;;;;9.50;100.00;99434.23;1750695;82;21082;-65
2022/12/11 19:01:23;;;;;;;22.60;8.20;;;;;;;7.91;100.00;99588.53;1733161;82;22784;-75
2022/12/11 19:03:51;;;;;;;19.17;7.97;;;;;;;7.93;100.00;99404.80;1701886;84;20987;-74
2022/12/11 19:06:23;;;;;;;15.47;7.20;;;;;;;7.92;100.00;99389.16;1680361;84;21046;-75
2022/12/11 19:08:51;;;;;;;19.48;8.03;;;;;;;7.92;100.00;99382.42;1701912;84;21121;-75
2022/12/11 19:11:23;;;;;;;18.27;8.07;;;;;;;7.93;100.00;99412.87;1701738;84;21042;-75
2022/12/11 19:13:52;;;;;;;19.40;7.73;;;;;;;7.90;100.00;99392.53;1702093;84;21034;-75
2022/12/11 19:16:22;;;;;;;18.47;7.10;;;;;;;7.92;100.00;99397.75;1701845;84;21476;-75
2022/12/11 19:18:49;;;;;;;20.17;8.03;;;;;;;7.89;100.00;99388.66;1701904;84;21030;-75
2022/12/11 19:21:17;;;;;;;19.97;7.73;;;;;;;7.89;100.00;99403.46;1701718;84;21054;-75
2022/12/11 19:23:46;;;;;;;17.50;7.70;;;;;;;7.85;100.00;99393.53;1701620;84;21078;-74
2022/12/11 19:26:18;;;;;;;17.50;7.97;;;;;;;7.85;100.00;99388.16;1702137;84;21019;-75
2022/12/11 19:28:45;;;;;;;17.93;8.33;;;;;;;7.81;100.00;99396.24;1701948;84;21042;-74
2022/12/11 19:31:17;;;;;;;21.00;8.17;;;;;;;7.77;100.00;99425.34;1701679;84;21027;-73
2022/12/11 19:33:48;;;;;;;19.60;7.75;;;;;;;7.78;100.00;99414.89;1701735;84;21046;-73
2022/12/11 19:36:17;;;;;;;19.50;7.47;;;;;;;7.77;100.00;99402.47;1702018;84;21058;-73
2022/12/11 19:38:44;;;;;;;20.97;8.03;;;;;;;7.75;100.00;99400.94;1702077;84;21073;-73
2022/12/11 19:41:18;;;;;;;19.50;8.33;;;;;;;7.75;100.00;99382.09;1701816;84;21520;-73
2022/12/11 19:43:45;;;;;;;20.03;7.47;;;;;;;7.73;100.00;99385.47;1701727;84;21105;-73
2022/12/11 19:46:12;;;;;;;23.13;8.27;;;;;;;7.71;100.00;99386.98;1701714;84;21524;-73
2022/12/11 19:48:40;;;;;;;18.73;7.83;;;;;;;7.69;100.00;99395.73;1701759;84;21042;-73
2022/12/11 19:51:14;;;;;;;19.13;8.80;;;;;;;7.68;100.00;99391.34;1701798;84;21035;-73
2022/12/11 19:53:42;;;;;;;18.37;8.47;;;;;;;7.67;100.00;99387.50;1701652;84;21070;-73
2022/12/11 19:56:11;;;;;;;20.70;8.83;;;;;;;7.65;100.00;99385.45;1701935;84;21043;-74
2022/12/11 19:58:38;;;;;;;21.27;8.57;;;;;;;7.63;100.00;99389.66;1701744;84;21046;-74
2022/12/11 20:01:06;;;;;;;19.07;8.50;;;;;;;7.61;100.00;99378.23;1705732;84;21117;-74
2022/12/11 20:03:34;;;;;;;22.93;9.00;;;;;;;7.59;100.00;99381.08;1706849;84;21511;-74
2022/12/11 20:06:04;;;;;;;21.63;8.60;;;;;;;7.55;100.00;99373.02;1707090;84;21029;-74
2022/12/11 20:08:31;;;;;;;19.37;8.70;;;;;;;7.52;100.00;99385.45;1706812;84;21103;-73
2022/12/11 20:11:06;;;;;;;20.43;8.50;;;;;;;7.50;100.00;99383.44;1706660;84;21045;-74
2022/12/11 20:13:36;;;;;;;19.40;8.23;;;;;;;7.49;100.00;99388.98;1706726;84;21062;-74
2022/12/11 20:16:07;;;;;;;19.20;8.37;;;;;;;7.47;100.00;99380.24;1706865;84;21046;-74
2022/12/11 20:18:34;;;;;;;18.50;8.33;;;;;;;7.45;100.00;99387.12;1707164;84;21454;-74
2022/12/11 20:21:03;;;;;;;17.67;8.33;;;;;;;7.46;100.00;99393.38;1706980;84;21491;-73
2022/12/11 20:23:31;;;;;;;19.40;8.27;;;;;;;7.47;100.00;99389.66;1707043;84;21522;-74
2022/12/11 20:25:58;;;;;;;20.90;8.83;;;;;;;7.46;100.00;99390.17;1707064;84;21050;-74
2022/12/11 20:28:25;;;;;;;18.07;8.07;;;;;;;7.48;100.00;99398.08;1706651;83;21066;-73
2022/12/11 20:31:03;;;;;;;18.10;7.93;;;;;;;7.48;100.00;99400.25;1707029;84;21049;-74
2022/12/11 20:33:31;;;;;;;21.07;8.93;;;;;;;7.50;100.00;99398.23;1706943;84;21507;-73
2022/12/11 20:35:57;;;;;;;19.17;8.37;;;;;;;7.51;100.00;99403.13;1706655;84;21074;-73
2022/12/11 20:38:24;;;;;;;17.67;7.80;;;;;;;7.50;100.00;99399.58;1706729;84;21081;-73
2022/12/11 20:40:57;;;;;;;19.63;8.57;;;;;;;7.49;100.00;99390.33;1706861;84;21109;-73
2022/12/11 20:43:26;;;;;;;19.43;8.50;;;;;;;7.47;100.00;99382.45;1707074;84;21562;-73
2022/12/11 20:45:55;;;;;;;20.20;8.00;;;;;;;7.47;100.00;99380.24;1706940;84;21006;-73
2022/12/11 20:48:21;;;;;;;22.27;9.00;;;;;;;7.46;100.00;99383.96;1706696;84;21491;-73
2022/12/11 20:50:48;;;;;;;19.60;7.93;;;;;;;7.45;100.00;99388.98;1706861;84;21042;-73
2022/12/11 20:53:16;;;;;;;16.60;7.70;;;;;;;7.44;100.00;99389.50;1706858;84;21570;-73
2022/12/11 20:55:42;;;;;;;21.40;7.47;;;;;;;7.43;100.00;99383.77;1706861;84;21085;-73
2022/12/11 20:58:09;;;;;;;20.67;8.37;;;;;;;7.42;100.00;99378.08;1706849;84;21054;-73
2022/12/11 21:00:37;;;;;;;21.07;8.27;;;;;;;7.42;100.00;99387.48;1706611;83;21093;-73
2022/12/11 21:03:04;;;;;;;18.47;7.87;;;;;;;7.41;100.00;99374.52;1706707;84;21468;-73
2022/12/11 21:05:32;;;;;;;18.00;7.37;;;;;;;7.43;100.00;99380.25;1706992;84;21062;-73
2022/12/11 21:08:09;;;;;;;20.03;8.20;;;;;;;7.42;100.00;99380.77;1706674;84;21058;-74
2022/12/11 21:10:42;;;;;;;21.77;8.73;;;;;;;7.43;100.00;99363.59;1706699;84;21499;-74
2022/12/11 21:13:09;;;;;;;19.65;7.80;;;;;;;7.43;100.00;99367.63;1706924;84;21065;-74
2022/12/11 21:15:38;;;;;;;19.10;8.83;;;;;;;7.43;100.00;99373.02;1706682;84;21042;-73